Time;durP1;ratioP1;P1;durP2;ratioP2;P2;SDS_P1;SDS_P2;PMS_P1;PMS_P2;Temp;Humidity;BMP_temperature;BMP_pressure;BME280_temperature;BME280_humidity;BME280_pressure;Samples;Min_cycle;Max_cycle;Signal;HPM_P1;HPM_P2
2022/11/25 00:00:03;;;;;;;1.85;1.15;;;;;;;;;;5095547;28;20040;-69
2022/11/25 00:02:28;;;;;;;1.83;0.90;;;;;;;;;;5095794;28;20054;-71
2022/11/25 00:04:53;;;;;;;1.73;0.93;;;;;;;;;;5095560;28;20024;-68
2022/11/25 00:07:19;;;;;;;1.48;0.80;;;;;;;;;;5095229;28;20024;-68
2022/11/25 00:09:44;;;;;;;1.17;1.08;;;;;;;;;;5095644;28;20081;-69
2022/11/25 00:12:09;;;;;;;2.03;1.08;;;;;;;;;;5111362;28;20048;-70
2022/11/25 00:14:35;;;;;;;2.08;1.08;;;;;;;;;;5095532;28;20026;-70
2022/11/25 00:17:00;;;;;;;3.00;1.17;;;;;;;;;;5110860;28;20038;-67
2022/11/25 00:19:25;;;;;;;1.95;1.67;;;;;;;;;;5095615;28;20070;-68
2022/11/25 00:21:51;;;;;;;1.70;1.00;;;;;;;;;;5095191;28;20058;-70
2022/11/25 00:24:16;;;;;;;4.35;1.45;;;;;;;;;;5095167;28;20440;-71
2022/11/25 00:26:42;;;;;;;2.38;1.08;;;;;;;;;;5095372;28;20020;-70
2022/11/25 00:29:10;;;;;;;1.48;1.08;;;;;;;;;;5094964;28;20020;-70
2022/11/25 00:31:36;;;;;;;2.05;1.17;;;;;;;;;;5095054;28;20430;-71
2022/11/25 00:34:01;;;;;;;1.85;1.13;;;;;;;;;;5095013;28;20016;-69
2022/11/25 00:36:30;;;;;;;2.67;1.35;;;;;;;;;;5110529;28;20162;-70
2022/11/25 00:39:15;;;;;;;1.25;0.80;;;;;;;;;;5094539;28;20369;-69
2022/11/25 00:44:40;;;;;;;1.48;1.15;;;;;;;;;;5094663;28;20263;-70
2022/11/25 00:47:15;;;;;;;1.60;1.10;;;;;;;;;;5094753;28;20027;-70
2022/11/25 00:49:45;;;;;;;1.20;1.00;;;;;;;;;;5094601;28;20057;-70
2022/11/25 00:52:12;;;;;;;1.80;1.15;;;;;;;;;;5109977;28;20028;-70
2022/11/25 00:54:38;;;;;;;1.60;1.20;;;;;;;;;;5109787;28;20119;-70
2022/11/25 00:57:03;;;;;;;2.70;1.10;;;;;;;;;;5094152;28;20094;-69
2022/11/25 00:59:29;;;;;;;1.23;0.90;;;;;;;;;;5110162;28;20477;-69
2022/11/25 01:01:55;;;;;;;1.08;0.88;;;;;;;;;;5094739;28;20024;-67
2022/11/25 01:04:20;;;;;;;0.93;0.70;;;;;;;;;;5094667;28;20159;-70
2022/11/25 01:06:45;;;;;;;1.65;1.00;;;;;;;;;;5094787;28;20020;-70
2022/11/25 01:09:11;;;;;;;4.15;0.90;;;;;;;;;;5094278;28;20023;-71
2022/11/25 01:11:37;;;;;;;2.47;1.35;;;;;;;;;;5094280;28;20077;-69
2022/11/25 01:14:02;;;;;;;2.95;1.20;;;;;;;;;;5094061;28;20028;-70
2022/11/25 01:16:28;;;;;;;3.22;1.30;;;;;;;;;;5109945;28;20019;-71
2022/11/25 01:18:53;;;;;;;2.80;1.50;;;;;;;;;;5094081;28;20019;-69
2022/11/25 01:21:18;;;;;;;5.63;2.28;;;;;;;;;;5109712;28;20020;-71
2022/11/25 01:23:45;;;;;;;2.70;2.10;;;;;;;;;;5093925;28;20460;-70
2022/11/25 01:26:11;;;;;;;1.88;1.50;;;;;;;;;;5109720;28;20385;-69
2022/11/25 01:28:37;;;;;;;2.83;2.03;;;;;;;;;;5109441;28;20018;-71
2022/11/25 01:31:04;;;;;;;2.67;1.45;;;;;;;;;;5108925;28;20019;-71
2022/11/25 01:33:31;;;;;;;2.95;2.03;;;;;;;;;;5109529;28;20477;-69
2022/11/25 01:36:07;;;;;;;3.15;2.30;;;;;;;;;;5109448;28;20385;-70
2022/11/25 01:38:32;;;;;;;2.63;2.30;;;;;;;;;;5093776;28;20107;-69
2022/11/25 01:40:58;;;;;;;2.65;1.83;;;;;;;;;;5093395;28;20421;-70
2022/11/25 01:43:23;;;;;;;3.33;2.08;;;;;;;;;;5093388;28;20031;-67
2022/11/25 01:45:49;;;;;;;3.00;1.65;;;;;;;;;;5093507;28;20012;-70
2022/11/25 01:48:20;;;;;;;3.55;1.75;;;;;;;;;;5093702;28;20016;-70
2022/11/25 01:50:46;;;;;;;2.28;1.70;;;;;;;;;;5093448;28;20027;-70
2022/11/25 01:53:12;;;;;;;4.00;1.85;;;;;;;;;;5093124;28;20302;-70
2022/11/25 01:55:40;;;;;;;3.35;1.88;;;;;;;;;;5109122;28;20020;-68
2022/11/25 01:58:10;;;;;;;2.38;1.60;;;;;;;;;;5108672;28;20618;-71
2022/11/25 02:00:37;;;;;;;1.92;1.20;;;;;;;;;;5093724;28;20028;-69
2022/11/25 02:03:03;;;;;;;3.00;1.73;;;;;;;;;;5092884;28;20028;-69
2022/11/25 02:05:48;;;;;;;2.08;1.40;;;;;;;;;;5092077;28;20019;-69
2022/11/25 02:08:15;;;;;;;1.92;1.48;;;;;;;;;;5081737;28;20028;-68
2022/11/25 02:10:42;;;;;;;1.17;1.00;;;;;;;;;;5092869;28;20016;-70
2022/11/25 02:13:07;;;;;;;2.70;1.60;;;;;;;;;;5108457;28;20108;-69
2022/11/25 02:15:34;;;;;;;2.55;1.23;;;;;;;;;;5092747;28;20062;-69
2022/11/25 02:18:00;;;;;;;1.65;1.27;;;;;;;;;;5108661;28;20016;-72
2022/11/25 02:20:25;;;;;;;1.58;1.08;;;;;;;;;;5108628;28;20032;-71
2022/11/25 02:23:15;;;;;;;1.67;1.17;;;;;;;;;;5092601;28;20036;-71
2022/11/25 02:25:42;;;;;;;1.85;1.27;;;;;;;;;;5108440;28;20027;-70
2022/11/25 02:28:29;;;;;;;1.63;1.17;;;;;;;;;;5092800;28;20023;-70
2022/11/25 02:30:55;;;;;;;2.13;1.30;;;;;;;;;;5092515;28;20058;-69
2022/11/25 02:33:20;;;;;;;3.42;1.55;;;;;;;;;;5092518;28;20093;-70
2022/11/25 02:35:48;;;;;;;2.03;1.30;;;;;;;;;;5093098;28;20016;-70
2022/11/25 02:38:15;;;;;;;2.28;1.48;;;;;;;;;;5092798;28;20020;-71
2022/11/25 02:40:43;;;;;;;1.95;1.60;;;;;;;;;;5092548;28;20526;-70
2022/11/25 02:43:09;;;;;;;3.75;1.60;;;;;;;;;;5092436;28;20028;-72
2022/11/25 02:45:38;;;;;;;2.92;1.75;;;;;;;;;;5108070;28;20015;-69
2022/11/25 02:48:04;;;;;;;3.80;2.22;;;;;;;;;;5092399;28;20387;-69
2022/11/25 02:50:29;;;;;;;1.50;1.35;;;;;;;;;;5092680;28;20017;-70
2022/11/25 02:52:54;;;;;;;1.98;1.27;;;;;;;;;;5108218;28;20071;-71
2022/11/25 02:55:20;;;;;;;2.28;1.10;;;;;;;;;;5092204;28;20407;-72
2022/11/25 02:57:45;;;;;;;2.58;1.50;;;;;;;;;;5092221;28;20377;-71
2022/11/25 03:00:11;;;;;;;1.02;0.80;;;;;;;;;;5092541;28;20540;-71
2022/11/25 03:02:36;;;;;;;1.10;0.93;;;;;;;;;;5091939;28;20037;-70
2022/11/25 03:05:02;;;;;;;1.60;0.70;;;;;;;;;;5092193;28;20050;-70
2022/11/25 03:07:28;;;;;;;2.78;1.00;;;;;;;;;;5092352;28;20021;-69
2022/11/25 03:09:53;;;;;;;1.73;0.82;;;;;;;;;;5092249;28;20023;-70
2022/11/25 03:12:19;;;;;;;0.85;0.60;;;;;;;;;;5092133;28;20012;-69
2022/11/25 03:14:44;;;;;;;1.45;0.90;;;;;;;;;;5092185;28;20016;-71
2022/11/25 03:17:09;;;;;;;1.17;0.85;;;;;;;;;;5091467;28;20024;-70
2022/11/25 03:19:35;;;;;;;1.40;0.98;;;;;;;;;;5092175;28;20024;-69
2022/11/25 03:22:00;;;;;;;1.50;1.20;;;;;;;;;;5107800;28;20314;-71
2022/11/25 03:24:26;;;;;;;2.25;0.93;;;;;;;;;;5092052;28;20103;-72
2022/11/25 03:26:52;;;;;;;1.85;0.90;;;;;;;;;;5092066;28;20461;-72
2022/11/25 03:29:18;;;;;;;1.83;1.42;;;;;;;;;;5107461;28;20016;-70
2022/11/25 03:31:43;;;;;;;1.35;1.08;;;;;;;;;;5091994;28;20016;-69
2022/11/25 03:34:08;;;;;;;2.90;1.45;;;;;;;;;;5107643;28;20032;-71
2022/11/25 03:36:34;;;;;;;2.33;0.75;;;;;;;;;;5092196;28;20088;-72
2022/11/25 03:38:59;;;;;;;1.70;1.15;;;;;;;;;;5091904;28;20411;-70
2022/11/25 03:41:24;;;;;;;3.03;1.73;;;;;;;;;;5091961;28;20478;-70
2022/11/25 03:43:50;;;;;;;1.85;1.50;;;;;;;;;;5091905;28;20469;-71
2022/11/25 03:46:15;;;;;;;1.90;1.13;;;;;;;;;;5091706;28;20077;-70
2022/11/25 03:48:41;;;;;;;1.95;1.25;;;;;;;;;;5107440;28;20020;-70
2022/11/25 03:51:06;;;;;;;1.95;1.35;;;;;;;;;;5091806;28;20020;-70
2022/11/25 03:53:31;;;;;;;1.23;0.93;;;;;;;;;;5107475;28;20469;-71
2022/11/25 03:55:56;;;;;;;2.85;1.42;;;;;;;;;;5091850;28;20488;-70
2022/11/25 03:58:22;;;;;;;1.95;1.60;;;;;;;;;;5107193;28;20048;-69
2022/11/25 04:00:47;;;;;;;4.43;1.33;;;;;;;;;;5107262;28;20109;-72
2022/11/25 04:03:13;;;;;;;1.83;1.48;;;;;;;;;;5091392;28;20387;-70
2022/11/25 04:05:38;;;;;;;5.50;1.80;;;;;;;;;;5107429;28;20020;-70
2022/11/25 04:08:03;;;;;;;1.60;1.40;;;;;;;;;;5107597;28;20016;-71
2022/11/25 04:10:29;;;;;;;2.53;1.40;;;;;;;;;;5091320;28;20396;-71
2022/11/25 04:12:54;;;;;;;3.45;2.20;;;;;;;;;;5091304;28;20135;-71
2022/11/25 04:15:20;;;;;;;2.78;1.30;;;;;;;;;;5091614;28;20016;-70
2022/11/25 04:17:45;;;;;;;2.00;1.60;;;;;;;;;;5091374;28;20044;-70
2022/11/25 04:20:11;;;;;;;3.08;1.48;;;;;;;;;;5091521;28;20024;-69
2022/11/25 04:22:37;;;;;;;2.00;1.35;;;;;;;;;;5106757;28;20035;-70
2022/11/25 04:25:02;;;;;;;2.25;1.80;;;;;;;;;;5091301;28;20376;-70
2022/11/25 04:27:28;;;;;;;1.73;1.42;;;;;;;;;;5106761;28;20027;-71
2022/11/25 04:29:53;;;;;;;2.03;1.63;;;;;;;;;;5094400;28;20031;-70
2022/11/25 04:32:18;;;;;;;1.70;1.33;;;;;;;;;;5094385;28;20020;-69
2022/11/25 04:34:44;;;;;;;2.80;1.83;;;;;;;;;;5095359;28;20073;-71
2022/11/25 04:37:09;;;;;;;3.28;1.27;;;;;;;;;;5094607;28;20112;-71
2022/11/25 04:39:35;;;;;;;2.65;1.08;;;;;;;;;;5094906;28;20027;-70
2022/11/25 04:44:44;;;;;;;1.65;1.20;;;;;;;;;;5094557;28;20030;-69
2022/11/25 04:47:09;;;;;;;2.00;1.08;;;;;;;;;;5110094;28;20392;-70
2022/11/25 04:49:35;;;;;;;2.42;1.02;;;;;;;;;;5110359;28;20016;-70
2022/11/25 04:52:00;;;;;;;1.80;1.08;;;;;;;;;;5094357;28;20476;-71
2022/11/25 04:54:25;;;;;;;2.30;1.23;;;;;;;;;;5109864;28;20114;-70
2022/11/25 04:56:51;;;;;;;1.48;1.13;;;;;;;;;;5110027;28;20044;-70
2022/11/25 05:02:01;;;;;;;1.27;0.88;;;;;;;;;;5094474;28;20403;-72
2022/11/25 05:04:26;;;;;;;1.63;0.93;;;;;;;;;;5094313;28;20016;-70
2022/11/25 05:06:51;;;;;;;1.60;1.48;;;;;;;;;;5094272;28;20103;-72
2022/11/25 05:09:17;;;;;;;3.97;1.23;;;;;;;;;;5109051;28;20027;-73
2022/11/25 05:11:42;;;;;;;2.03;1.27;;;;;;;;;;5094190;28;20012;-71
2022/11/25 05:14:07;;;;;;;2.15;1.50;;;;;;;;;;5110081;28;20095;-71
2022/11/25 05:16:33;;;;;;;1.45;1.35;;;;;;;;;;5109975;28;20072;-70
2022/11/25 05:18:58;;;;;;;6.00;1.40;;;;;;;;;;5094122;28;20016;-72
2022/11/25 05:21:24;;;;;;;1.85;1.25;;;;;;;;;;5094296;28;20425;-70
2022/11/25 05:23:49;;;;;;;1.90;1.38;;;;;;;;;;5095865;28;20032;-74
2022/11/25 05:26:14;;;;;;;2.72;1.80;;;;;;;;;;5096103;28;20077;-70
2022/11/25 05:28:40;;;;;;;1.73;1.60;;;;;;;;;;5093793;28;20012;-73
2022/11/25 05:31:05;;;;;;;2.78;1.70;;;;;;;;;;5093562;28;20020;-70
2022/11/25 05:33:30;;;;;;;3.38;1.35;;;;;;;;;;5109223;28;20406;-71
2022/11/25 05:35:57;;;;;;;2.17;1.75;;;;;;;;;;5109335;28;20127;-71
2022/11/25 05:38:22;;;;;;;1.90;1.63;;;;;;;;;;5093745;28;20544;-71
2022/11/25 05:40:48;;;;;;;3.42;1.90;;;;;;;;;;5108718;28;20043;-70
2022/11/25 05:43:13;;;;;;;2.58;2.00;;;;;;;;;;5093084;28;20462;-71
2022/11/25 05:45:38;;;;;;;3.53;2.20;;;;;;;;;;5093393;28;20061;-71
2022/11/25 05:48:04;;;;;;;2.17;1.55;;;;;;;;;;5093961;28;20058;-72
2022/11/25 05:50:29;;;;;;;2.20;1.50;;;;;;;;;;5108746;28;20027;-72
2022/11/25 05:52:55;;;;;;;2.53;1.55;;;;;;;;;;5108424;28;20084;-71
2022/11/25 05:55:20;;;;;;;3.88;1.67;;;;;;;;;;5092774;28;20514;-72
2022/11/25 05:57:45;;;;;;;2.15;1.45;;;;;;;;;;5092993;28;20075;-72
2022/11/25 06:00:11;;;;;;;2.55;1.48;;;;;;;;;;5092925;28;20030;-71
2022/11/25 06:02:37;;;;;;;2.00;1.48;;;;;;;;;;5108497;28;20028;-71
2022/11/25 06:05:03;;;;;;;3.67;1.73;;;;;;;;;;5107954;28;20387;-71
2022/11/25 06:07:28;;;;;;;3.53;1.60;;;;;;;;;;5108633;28;20421;-72
2022/11/25 06:09:54;;;;;;;2.53;1.58;;;;;;;;;;5107924;28;20125;-71
2022/11/25 06:12:20;;;;;;;1.92;1.58;;;;;;;;;;5092778;28;20008;-72
2022/11/25 06:14:45;;;;;;;2.03;1.50;;;;;;;;;;5093141;28;20024;-72
2022/11/25 06:17:11;;;;;;;2.30;1.70;;;;;;;;;;5092842;28;20069;-72
2022/11/25 06:19:36;;;;;;;2.15;1.40;;;;;;;;;;5092480;28;20074;-71
2022/11/25 06:22:02;;;;;;;1.75;1.38;;;;;;;;;;5092092;28;20019;-72
2022/11/25 06:24:27;;;;;;;1.70;1.20;;;;;;;;;;5091851;28;20306;-71
2022/11/25 06:26:52;;;;;;;2.25;1.48;;;;;;;;;;5107631;28;20020;-72
2022/11/25 06:29:18;;;;;;;3.33;1.38;;;;;;;;;;5092416;28;20096;-74
2022/11/25 06:31:43;;;;;;;3.38;1.20;;;;;;;;;;5092290;28;20141;-72
2022/11/25 06:34:08;;;;;;;1.20;0.90;;;;;;;;;;5092208;28;20024;-73
2022/11/25 06:36:38;;;;;;;4.80;1.75;;;;;;;;;;5092063;28;20131;-74
2022/11/25 06:39:03;;;;;;;4.18;1.13;;;;;;;;;;5092135;28;20024;-71
2022/11/25 06:41:28;;;;;;;1.27;1.00;;;;;;;;;;5092308;28;20024;-73
2022/11/25 06:43:54;;;;;;;2.60;1.20;;;;;;;;;;5092111;28;20028;-73
2022/11/25 06:46:19;;;;;;;2.47;1.30;;;;;;;;;;5092193;28;20031;-72
2022/11/25 06:48:45;;;;;;;1.95;1.27;;;;;;;;;;5107412;28;20016;-73
2022/11/25 06:51:11;;;;;;;1.92;1.20;;;;;;;;;;5106626;28;20019;-73
2022/11/25 06:53:37;;;;;;;2.47;1.13;;;;;;;;;;5107755;28;20032;-71
2022/11/25 06:56:16;;;;;;;2.58;1.40;;;;;;;;;;5091615;28;20036;-75
2022/11/25 06:58:42;;;;;;;1.63;1.10;;;;;;;;;;5091725;28;20048;-74
2022/11/25 07:01:16;;;;;;;2.25;1.23;;;;;;;;;;5107133;28;20016;-70
2022/11/25 07:03:42;;;;;;;1.38;0.93;;;;;;;;;;5091968;28;20032;-73
2022/11/25 07:06:08;;;;;;;2.67;1.27;;;;;;;;;;5106999;28;20020;-72
2022/11/25 07:08:33;;;;;;;2.22;1.50;;;;;;;;;;5091601;28;20061;-73
2022/11/25 07:11:06;;;;;;;1.55;0.88;;;;;;;;;;5091605;28;20135;-72
2022/11/25 07:13:32;;;;;;;1.20;0.82;;;;;;;;;;5091704;28;20060;-73
2022/11/25 07:16:04;;;;;;;3.78;1.98;;;;;;;;;;5106895;28;20032;-73
2022/11/25 07:18:31;;;;;;;2.40;1.20;;;;;;;;;;5090928;28;20028;-73
2022/11/25 07:21:00;;;;;;;1.55;0.70;;;;;;;;;;5106023;28;20468;-72
2022/11/25 07:23:26;;;;;;;1.83;1.15;;;;;;;;;;5091447;28;20448;-70
2022/11/25 07:25:52;;;;;;;1.55;1.25;;;;;;;;;;5107076;28;20023;-72
2022/11/25 07:28:18;;;;;;;2.38;1.25;;;;;;;;;;5091777;28;20326;-73
2022/11/25 07:30:43;;;;;;;2.50;1.60;;;;;;;;;;5091180;28;20533;-71
2022/11/25 07:33:09;;;;;;;3.28;1.60;;;;;;;;;;5091434;28;20115;-70
2022/11/25 07:35:34;;;;;;;4.78;1.33;;;;;;;;;;5090951;28;20016;-72
2022/11/25 07:38:00;;;;;;;4.15;1.27;;;;;;;;;;5091125;28;20024;-71
2022/11/25 07:40:25;;;;;;;2.50;1.50;;;;;;;;;;5106596;28;20542;-73
2022/11/25 07:42:50;;;;;;;1.33;1.00;;;;;;;;;;5091106;28;20032;-72
2022/11/25 07:45:16;;;;;;;2.40;1.58;;;;;;;;;;5106332;28;20052;-73
2022/11/25 07:47:41;;;;;;;2.03;1.40;;;;;;;;;;5106355;28;20024;-74
2022/11/25 07:50:07;;;;;;;1.75;1.23;;;;;;;;;;5091774;28;20012;-72
2022/11/25 07:52:32;;;;;;;5.43;1.58;;;;;;;;;;5091365;28;20375;-73
2022/11/25 07:54:58;;;;;;;2.53;1.75;;;;;;;;;;5091275;28;20031;-72
2022/11/25 07:57:23;;;;;;;2.60;1.50;;;;;;;;;;5106735;28;20063;-72
2022/11/25 07:59:48;;;;;;;2.97;1.42;;;;;;;;;;5091116;28;20103;-71
2022/11/25 08:02:14;;;;;;;1.92;1.38;;;;;;;;;;5091874;28;20047;-71
2022/11/25 08:04:39;;;;;;;1.88;1.45;;;;;;;;;;5110453;28;20484;-73
2022/11/25 08:07:05;;;;;;;2.88;1.95;;;;;;;;;;5094678;28;20376;-71
2022/11/25 08:09:30;;;;;;;3.05;1.55;;;;;;;;;;5095066;28;20061;-72
2022/11/25 08:11:56;;;;;;;2.40;1.75;;;;;;;;;;5094990;28;20080;-71
2022/11/25 08:14:21;;;;;;;2.88;1.52;;;;;;;;;;5110778;28;20020;-71
2022/11/25 08:16:46;;;;;;;4.35;1.85;;;;;;;;;;5110413;28;20110;-71
2022/11/25 08:19:13;;;;;;;4.28;1.63;;;;;;;;;;5095223;28;20019;-71
2022/11/25 08:21:40;;;;;;;7.80;1.83;;;;;;;;;;5111363;28;20115;-71
2022/11/25 08:24:05;;;;;;;3.45;2.00;;;;;;;;;;5094828;28;20032;-72
2022/11/25 08:26:32;;;;;;;3.00;2.08;;;;;;;;;;5094930;28;20380;-72
2022/11/25 08:28:58;;;;;;;2.50;1.58;;;;;;;;;;5094139;28;20099;-71
2022/11/25 08:31:25;;;;;;;2.35;1.73;;;;;;;;;;5109971;28;20055;-71
2022/11/25 08:33:51;;;;;;;2.50;1.50;;;;;;;;;;5094412;28;20016;-72
2022/11/25 08:36:17;;;;;;;3.35;1.92;;;;;;;;;;5094935;28;20016;-71
2022/11/25 08:38:44;;;;;;;3.92;1.80;;;;;;;;;;5094600;28;20016;-71
2022/11/25 08:41:11;;;;;;;3.35;1.98;;;;;;;;;;5109802;28;20050;-69
2022/11/25 08:43:36;;;;;;;3.72;2.42;;;;;;;;;;5094299;28;20042;-72
2022/11/25 08:46:06;;;;;;;3.28;2.38;;;;;;;;;;5094700;28;20008;-72
2022/11/25 08:48:31;;;;;;;2.92;2.13;;;;;;;;;;5096071;28;20472;-73
2022/11/25 08:50:57;;;;;;;3.25;2.13;;;;;;;;;;5097165;28;20020;-70
2022/11/25 08:53:22;;;;;;;3.15;2.30;;;;;;;;;;5111027;28;20387;-72
2022/11/25 08:55:48;;;;;;;3.92;2.58;;;;;;;;;;5110086;28;20040;-71
2022/11/25 08:58:13;;;;;;;6.57;2.55;;;;;;;;;;5110031;28;20491;-73
2022/11/25 09:00:40;;;;;;;3.65;2.42;;;;;;;;;;5109524;28;20035;-72
2022/11/25 09:03:05;;;;;;;4.20;2.25;;;;;;;;;;5094709;28;20032;-72
2022/11/25 09:05:34;;;;;;;3.63;2.25;;;;;;;;;;5110084;28;20031;-72
2022/11/25 09:08:02;;;;;;;3.75;2.15;;;;;;;;;;5094870;28;20533;-73
2022/11/25 09:10:28;;;;;;;3.83;2.20;;;;;;;;;;5109585;28;20016;-71
2022/11/25 09:12:54;;;;;;;3.38;2.85;;;;;;;;;;5094032;28;20092;-70
2022/11/25 09:15:19;;;;;;;3.30;2.17;;;;;;;;;;5092726;28;20035;-71
2022/11/25 09:17:45;;;;;;;4.35;2.00;;;;;;;;;;5093729;28;20045;-70
2022/11/25 09:20:10;;;;;;;4.35;2.30;;;;;;;;;;5093155;28;20388;-73
2022/11/25 09:22:36;;;;;;;6.03;2.95;;;;;;;;;;5093150;28;20089;-72
2022/11/25 09:25:01;;;;;;;7.70;3.00;;;;;;;;;;5093295;28;20030;-72
2022/11/25 09:27:27;;;;;;;3.60;2.55;;;;;;;;;;5093578;28;20016;-71
2022/11/25 09:29:52;;;;;;;3.22;2.38;;;;;;;;;;5093682;28;20444;-71
2022/11/25 09:32:18;;;;;;;3.72;2.60;;;;;;;;;;5093348;28;20012;-71
2022/11/25 09:34:43;;;;;;;5.82;2.70;;;;;;;;;;5093408;28;20020;-71
2022/11/25 09:37:10;;;;;;;3.60;2.17;;;;;;;;;;5109009;28;20016;-71
2022/11/25 09:39:35;;;;;;;3.30;2.30;;;;;;;;;;5093560;28;20027;-72
2022/11/25 09:48:11;;;;;;;5.38;2.40;;;;;;;;;;5093192;28;20468;-72
2022/11/25 09:50:55;;;;;;;7.90;2.80;;;;;;;;;;5093194;28;20064;-71
2022/11/25 09:53:23;;;;;;;4.85;3.10;;;;;;;;;;5092868;28;20103;-71
2022/11/25 09:55:50;;;;;;;3.55;2.72;;;;;;;;;;5093041;28;20472;-71
2022/11/25 09:58:21;;;;;;;3.53;2.75;;;;;;;;;;5093168;28;20476;-72
2022/11/25 10:00:48;;;;;;;3.15;2.28;;;;;;;;;;5108343;28;20108;-73
2022/11/25 10:03:19;;;;;;;3.72;2.50;;;;;;;;;;5092371;28;20110;-69
2022/11/25 10:05:46;;;;;;;3.35;2.30;;;;;;;;;;5108416;28;20020;-71
2022/11/25 10:08:16;;;;;;;4.78;3.05;;;;;;;;;;5093072;28;20025;-72
2022/11/25 10:10:43;;;;;;;3.45;2.33;;;;;;;;;;5108425;28;20012;-71
2022/11/25 10:13:15;;;;;;;4.07;2.90;;;;;;;;;;5107744;28;20016;-71
2022/11/25 10:15:43;;;;;;;5.53;3.22;;;;;;;;;;5092554;28;20032;-71
2022/11/25 10:18:26;;;;;;;4.00;2.60;;;;;;;;;;5092290;28;20384;-68
2022/11/25 10:20:52;;;;;;;3.58;2.40;;;;;;;;;;5092673;28;20027;-71
2022/11/25 10:23:23;;;;;;;5.03;2.90;;;;;;;;;;5107518;28;20028;-72
2022/11/25 10:25:51;;;;;;;4.97;3.08;;;;;;;;;;5091639;28;20103;-70
2022/11/25 10:28:18;;;;;;;6.22;3.00;;;;;;;;;;5092286;28;20047;-71
2022/11/25 10:30:58;;;;;;;4.70;3.00;;;;;;;;;;5107410;28;20032;-71
2022/11/25 10:33:23;;;;;;;4.10;2.65;;;;;;;;;;5107275;28;20026;-70
2022/11/25 10:35:54;;;;;;;5.43;3.05;;;;;;;;;;5107316;28;20016;-69
2022/11/25 10:38:26;;;;;;;4.70;2.85;;;;;;;;;;5091834;28;20024;-72
2022/11/25 10:40:53;;;;;;;6.03;3.97;;;;;;;;;;5107482;28;20088;-72
2022/11/25 10:43:19;;;;;;;6.32;3.30;;;;;;;;;;5106922;28;20032;-69
2022/11/25 10:45:57;;;;;;;5.75;3.08;;;;;;;;;;5089946;28;20086;-71
2022/11/25 10:48:35;;;;;;;8.20;3.22;;;;;;;;;;5091279;28;20012;-70
2022/11/25 10:51:14;;;;;;;4.25;2.83;;;;;;;;;;5091142;28;20016;-69
2022/11/25 10:53:40;;;;;;;5.43;3.08;;;;;;;;;;5091915;28;20028;-72
2022/11/25 10:56:10;;;;;;;4.97;3.45;;;;;;;;;;5107531;28;20382;-73
2022/11/25 10:58:37;;;;;;;4.97;3.05;;;;;;;;;;5091001;28;20507;-70
2022/11/25 11:01:20;;;;;;;5.80;3.55;;;;;;;;;;5091161;28;20025;-72
2022/11/25 11:03:50;;;;;;;5.97;3.00;;;;;;;;;;5106742;28;20039;-71
2022/11/25 11:06:36;;;;;;;4.78;3.13;;;;;;;;;;5106554;28;20121;-72
2022/11/25 11:09:01;;;;;;;;;;;;;;;;;;5089215;28;20515;-71
2022/11/25 11:11:26;;;;;;;3.40;2.60;;;;;;;;;;5091066;28;19904;-72
2022/11/25 11:14:09;;;;;;;3.45;2.42;;;;;;;;;;5091345;28;20028;-70
2022/11/25 11:16:36;;;;;;;4.43;2.70;;;;;;;;;;5091321;28;20464;-70
2022/11/25 11:19:02;;;;;;;4.80;2.97;;;;;;;;;;5090434;28;20038;-72
2022/11/25 11:21:30;;;;;;;3.60;2.53;;;;;;;;;;5106963;28;20017;-70
2022/11/25 11:23:56;;;;;;;4.10;2.72;;;;;;;;;;5091055;28;20044;-72
2022/11/25 11:26:23;;;;;;;4.38;2.92;;;;;;;;;;5091258;28;20107;-69
2022/11/25 11:28:56;;;;;;;4.07;3.08;;;;;;;;;;5091048;28;20023;-69
2022/11/25 11:31:24;;;;;;;4.43;3.28;;;;;;;;;;5091305;28;20023;-69
2022/11/25 11:34:10;;;;;;;3.47;2.65;;;;;;;;;;5091149;28;20048;-71
2022/11/25 11:36:54;;;;;;;5.00;3.15;;;;;;;;;;5079287;28;20388;-69
2022/11/25 11:39:37;;;;;;;5.22;3.58;;;;;;;;;;5094849;28;20480;-71
2022/11/25 11:42:05;;;;;;;6.78;3.05;;;;;;;;;;5095223;28;20127;-69
2022/11/25 11:44:46;;;;;;;4.85;3.42;;;;;;;;;;5095572;28;20441;-69
2022/11/25 11:47:24;;;;;;;4.93;3.60;;;;;;;;;;5094943;28;20020;-70
2022/11/25 11:50:09;;;;;;;4.85;3.17;;;;;;;;;;5110438;28;20016;-71
2022/11/25 11:52:34;;;;;;;;;;;;;;;;;;5091703;28;20065;-70
2022/11/25 11:55:05;;;;;;;5.65;3.65;;;;;;;;;;5094699;28;20473;-71
2022/11/25 11:57:37;;;;;;;6.03;3.83;;;;;;;;;;5094412;28;20054;-70
2022/11/25 12:00:08;;;;;;;5.53;3.58;;;;;;;;;;5094490;28;20085;-69
2022/11/25 12:02:33;;;;;;;6.53;3.55;;;;;;;;;;5110381;28;20034;-69
2022/11/25 12:05:03;;;;;;;8.07;3.53;;;;;;;;;;5094218;28;20375;-70
2022/11/25 12:07:35;;;;;;;6.93;3.50;;;;;;;;;;5094778;28;20016;-68
2022/11/25 12:10:26;;;;;;;5.00;3.67;;;;;;;;;;5094276;28;20558;-68
2022/11/25 12:12:58;;;;;;;5.60;3.70;;;;;;;;;;5077144;28;20110;-69
2022/11/25 12:15:36;;;;;;;5.43;3.88;;;;;;;;;;5094305;28;20020;-69
2022/11/25 12:18:09;;;;;;;6.80;4.50;;;;;;;;;;5095214;28;20034;-68
2022/11/25 12:20:40;;;;;;;7.40;4.63;;;;;;;;;;5095157;28;20020;-69
2022/11/25 12:23:14;;;;;;;5.47;4.43;;;;;;;;;;5109477;28;20468;-70
2022/11/25 12:25:40;;;;;;;8.52;4.20;;;;;;;;;;5094410;28;20024;-69
2022/11/25 12:28:09;;;;;;;7.32;4.05;;;;;;;;;;5109938;28;20020;-69
2022/11/25 12:30:50;;;;;;;5.35;3.78;;;;;;;;;;5110015;28;20024;-70
2022/11/25 12:33:24;;;;;;;6.03;4.00;;;;;;;;;;5094361;28;20020;-70
2022/11/25 12:35:58;;;;;;;8.20;4.22;;;;;;;;;;5094520;28;20449;-68
2022/11/25 12:38:41;;;;;;;6.20;4.32;;;;;;;;;;5110063;28;20060;-69
2022/11/25 12:41:13;;;;;;;7.90;4.20;;;;;;;;;;5109601;28;20036;-67
2022/11/25 12:43:59;;;;;;;9.15;4.40;;;;;;;;;;5109304;28;20035;-70
2022/11/25 12:46:27;;;;;;;6.53;4.63;;;;;;;;;;5094220;28;20046;-69
2022/11/25 12:48:53;;;;;;;7.22;4.75;;;;;;;;;;5108736;28;20012;-69
2022/11/25 12:51:25;;;;;;;5.35;3.92;;;;;;;;;;5093793;28;20882;-69
2022/11/25 12:54:00;;;;;;;10.13;4.68;;;;;;;;;;5094147;28;20078;-70
2022/11/25 12:56:46;;;;;;;7.85;4.43;;;;;;;;;;5094089;28;20036;-69
2022/11/25 12:59:23;;;;;;;8.43;5.03;;;;;;;;;;5070871;28;20483;-69
2022/11/25 13:01:55;;;;;;;8.52;4.82;;;;;;;;;;5109218;28;20568;-69
2022/11/25 13:04:23;;;;;;;9.75;4.13;;;;;;;;;;5093920;28;20039;-70
2022/11/25 13:06:48;;;;;;;6.15;4.68;;;;;;;;;;5109200;28;20393;-69
2022/11/25 13:09:39;;;;;;;9.80;5.03;;;;;;;;;;5093673;28;20016;-69
2022/11/25 13:12:14;;;;;;;7.47;4.53;;;;;;;;;;5109314;28;20500;-69
2022/11/25 13:14:48;;;;;;;7.22;5.05;;;;;;;;;;5093397;28;20024;-70
2022/11/25 13:17:14;;;;;;;7.25;4.72;;;;;;;;;;5093100;28;20050;-70
2022/11/25 13:19:39;;;;;;;7.95;4.47;;;;;;;;;;5093079;28;20531;-70
2022/11/25 13:22:26;;;;;;;7.30;4.47;;;;;;;;;;5093224;28;20023;-68
2022/11/25 13:24:51;;;;;;;20.50;10.85;;;;;;;;;;5093443;28;20074;-70
2022/11/25 13:27:52;;;;;;;11.13;5.18;;;;;;;;;;5092846;28;20431;-70
2022/11/25 13:30:35;;;;;;;7.15;4.80;;;;;;;;;;5093281;28;20026;-71
2022/11/25 13:33:09;;;;;;;9.23;5.43;;;;;;;;;;5108886;28;20110;-69
2022/11/25 13:35:36;;;;;;;8.55;5.68;;;;;;;;;;5093135;28;20472;-68
2022/11/25 13:38:05;;;;;;;6.68;4.60;;;;;;;;;;5108040;28;20059;-70
2022/11/25 13:40:38;;;;;;;8.18;4.82;;;;;;;;;;5092634;28;20016;-67
2022/11/25 13:43:03;;;;;;;7.22;4.65;;;;;;;;;;5108190;28;20067;-69
2022/11/25 13:45:42;;;;;;;9.45;5.18;;;;;;;;;;5092554;28;20047;-69
2022/11/25 13:48:27;;;;;;;7.95;4.85;;;;;;;;;;5092466;28;20035;-70
2022/11/25 13:51:12;;;;;;;9.02;3.95;;;;;;;;;;5092778;28;20107;-69
2022/11/25 13:53:37;;;;;;;6.68;4.70;;;;;;;;;;5108655;28;20081;-70
2022/11/25 13:56:35;;;;;;;9.02;4.20;;;;;;;;;;5092608;28;20383;-70
2022/11/25 13:59:09;;;;;;;7.45;4.47;;;;;;;;;;5079681;28;20108;-69
2022/11/25 14:01:36;;;;;;;7.32;4.15;;;;;;;;;;5092636;28;20023;-68
2022/11/25 14:04:04;;;;;;;9.80;4.72;;;;;;;;;;5108163;28;20038;-69
2022/11/25 14:06:51;;;;;;;7.47;4.72;;;;;;;;;;5092225;28;20032;-69
2022/11/25 14:09:18;;;;;;;7.78;4.63;;;;;;;;;;5080783;28;20090;-70
2022/11/25 14:12:03;;;;;;;7.65;5.30;;;;;;;;;;5092103;28;20100;-69
2022/11/25 14:14:38;;;;;;;9.77;4.63;;;;;;;;;;5092117;28;20150;-70
2022/11/25 14:17:22;;;;;;;8.98;6.32;;;;;;;;;;5106960;28;20031;-71
2022/11/25 14:19:50;;;;;;;5.78;4.53;;;;;;;;;;5107698;28;20482;-70
2022/11/25 14:22:19;;;;;;;7.03;4.45;;;;;;;;;;5092439;28;20027;-71
2022/11/25 14:24:49;;;;;;;5.57;3.97;;;;;;;;;;5091925;28;20110;-70
2022/11/25 14:27:16;;;;;;;7.72;5.47;;;;;;;;;;5107213;28;20024;-67
2022/11/25 14:30:00;;;;;;;7.55;5.40;;;;;;;;;;5092168;28;20024;-70
2022/11/25 14:32:40;;;;;;;8.55;5.82;;;;;;;;;;5091707;28;20027;-70
2022/11/25 14:35:13;;;;;;;10.00;5.18;;;;;;;;;;5091374;28;20465;-69
2022/11/25 14:37:43;;;;;;;8.52;5.30;;;;;;;;;;5091666;28;20586;-70
2022/11/25 14:40:16;;;;;;;7.88;5.70;;;;;;;;;;5091748;28;20495;-69
2022/11/25 14:42:43;;;;;;;7.00;4.97;;;;;;;;;;5091616;28;20039;-70
2022/11/25 14:45:20;;;;;;;8.82;5.53;;;;;;;;;;5091079;28;20487;-67
2022/11/25 14:47:46;;;;;;;7.90;6.30;;;;;;;;;;5107001;28;20024;-70
2022/11/25 14:50:11;;;;;;;9.23;6.18;;;;;;;;;;5106987;28;20043;-70
2022/11/25 14:52:37;;;;;;;8.30;5.50;;;;;;;;;;5106911;28;20031;-68
2022/11/25 14:55:03;;;;;;;10.63;6.75;;;;;;;;;;5106747;28;20031;-71
2022/11/25 14:57:32;;;;;;;10.48;6.78;;;;;;;;;;5091127;28;20114;-70
2022/11/25 15:00:01;;;;;;;8.18;6.35;;;;;;;;;;5107128;28;20457;-70
2022/11/25 15:02:32;;;;;;;10.55;6.72;;;;;;;;;;5091538;28;20564;-70
2022/11/25 15:05:17;;;;;;;10.68;5.57;;;;;;;;;;5106269;28;20050;-71